This is the latest recevied weather packets stored in our database for station/object WI0K. If no packets are shown the sender has not sent any weather packets the latest 10 day(s).
| Time | Temp. | Humidity | Pressure | Rain* | Wind** | Luminosity | Snow |
|---|---|---|---|---|---|---|---|
| 1787863915 | 32.22° C | 25% | 1022.1 hPa | 0 mm | - | 845 W/m² | - |
| 1787863614 | 32.22° C | 26% | 1022.2 hPa | 0 mm | - | 851 W/m² | - |
| 1787863314 | 31.67° C | 28% | 1022.3 hPa | 0 mm | - | 857 W/m² | - |
| 1787863014 | 32.22° C | 26% | 1022.4 hPa | 0 mm | - | 866 W/m² | - |
| 1787862713 | 32.22° C | 25% | 1022.3 hPa | 0 mm | - | 888 W/m² | - |
| 1787862413 | 31.67° C | 26% | 1022.4 hPa | 0 mm | - | 891 W/m² | - |
| 1787862112 | 31.67° C | 26% | 1022.5 hPa | 0 mm | - | 904 W/m² | - |
| 1787861811 | 31.67° C | 25% | 1022.7 hPa | 0 mm | - | 920 W/m² | - |
| 1787861510 | 31.67° C | 26% | 1022.7 hPa | 0 mm | - | 914 W/m² | - |
| 1787861210 | 31.67° C | 26% | 1022.7 hPa | 0 mm | - | 903 W/m² | - |
| 1787860909 | 31.67° C | 27% | 1022.8 hPa | 0 mm | - | 907 W/m² | - |
| 1787860608 | 31.67° C | 26% | 1022.8 hPa | 0 mm | - | 911 W/m² | - |
| 1787860312 | 31.67° C | 27% | 835 hPa | 0 mm | - | 911 W/m² | - |
| 1787860007 | 31.11° C | 28% | 835.1 hPa | 0 mm | - | 920 W/m² | - |
| 1787859706 | 30.56° C | 27% | 835.1 hPa | 0 mm | - | 927 W/m² | - |
| 1787859406 | 30.56° C | 29% | 835.2 hPa | 0 mm | - | 930 W/m² | - |
| 1787859105 | 31.11° C | 28% | 835.2 hPa | 0 mm | - | 936 W/m² | - |
| 1787858805 | 31.11° C | 28% | 835.2 hPa | 0 mm | - | 937 W/m² | - |
| 1787858504 | 31.11° C | 30% | 835.3 hPa | 0 mm | - | 938 W/m² | - |
| 1787858203 | 30.56° C | 30% | 1023 hPa | 0 mm | - | 944 W/m² | - |
| 1787857902 | 30° C | 31% | 835.4 hPa | 0 mm | - | 958 W/m² | - |
| 1787857601 | 30° C | 30% | 835.4 hPa | 0 mm | - | 947 W/m² | - |
| 1787857301 | 30° C | 30% | 1023.2 hPa | 0 mm | - | 950 W/m² | - |
| 1787857000 | 29.44° C | 33% | 835.4 hPa | 0 mm | - | 949 W/m² | - |
| 1787856699 | 29.44° C | 32% | 1023.2 hPa | 0 mm | - | 949 W/m² | - |
* Rain latest hour (hover to see other rain measurements)
** Current wind speed in m/s (hover to see current wind gust speed)